sensor_id;sensor_type;location;lat;lon;timestamp;P1;durP1;ratioP1;P2;durP2;ratioP2
77016;SDS011;65949;53.132;17.930;2023-06-26T00:01:01;9.70;;;4.60;;
77016;SDS011;65949;53.132;17.930;2023-06-26T00:03:48;9.80;;;4.30;;
77016;SDS011;65949;53.132;17.930;2023-06-26T00:06:15;9.80;;;4.40;;
77016;SDS011;65949;53.132;17.930;2023-06-26T00:08:41;11.30;;;4.30;;
77016;SDS011;65949;53.132;17.930;2023-06-26T00:11:09;9.40;;;4.80;;
77016;SDS011;65949;53.132;17.930;2023-06-26T00:13:36;10.90;;;4.70;;
77016;SDS011;65949;53.132;17.930;2023-06-26T00:16:03;13.10;;;5.20;;
77016;SDS011;65949;53.132;17.930;2023-06-26T00:18:29;13.60;;;5.10;;
77016;SDS011;65949;53.132;17.930;2023-06-26T00:20:56;11.80;;;5.10;;
77016;SDS011;65949;53.132;17.930;2023-06-26T00:23:23;11.40;;;5.60;;
77016;SDS011;65949;53.132;17.930;2023-06-26T00:25:49;13.00;;;5.10;;
77016;SDS011;65949;53.132;17.930;2023-06-26T00:28:16;10.50;;;5.00;;
77016;SDS011;65949;53.132;17.930;2023-06-26T00:30:42;11.20;;;5.30;;
77016;SDS011;65949;53.132;17.930;2023-06-26T00:33:09;13.60;;;5.10;;
77016;SDS011;65949;53.132;17.930;2023-06-26T00:35:35;10.00;;;4.90;;
77016;SDS011;65949;53.132;17.930;2023-06-26T00:38:04;12.10;;;5.70;;
77016;SDS011;65949;53.132;17.930;2023-06-26T00:40:30;14.80;;;5.60;;
77016;SDS011;65949;53.132;17.930;2023-06-26T00:42:57;17.30;;;8.80;;
77016;SDS011;65949;53.132;17.930;2023-06-26T00:45:23;15.20;;;7.20;;
77016;SDS011;65949;53.132;17.930;2023-06-26T00:47:50;16.90;;;8.30;;
77016;SDS011;65949;53.132;17.930;2023-06-26T00:50:17;40.70;;;22.00;;
77016;SDS011;65949;53.132;17.930;2023-06-26T00:52:44;32.50;;;17.30;;
77016;SDS011;65949;53.132;17.930;2023-06-26T00:55:10;33.10;;;14.20;;
77016;SDS011;65949;53.132;17.930;2023-06-26T00:57:37;17.40;;;6.50;;
77016;SDS011;65949;53.132;17.930;2023-06-26T01:00:04;15.10;;;5.20;;
77016;SDS011;65949;53.132;17.930;2023-06-26T01:02:32;14.10;;;4.40;;
77016;SDS011;65949;53.132;17.930;2023-06-26T01:05:04;13.20;;;5.00;;
77016;SDS011;65949;53.132;17.930;2023-06-26T01:07:36;13.10;;;5.30;;
77016;SDS011;65949;53.132;17.930;2023-06-26T01:10:08;14.10;;;4.90;;
77016;SDS011;65949;53.132;17.930;2023-06-26T01:12:35;12.50;;;5.20;;
77016;SDS011;65949;53.132;17.930;2023-06-26T01:15:05;11.10;;;5.00;;
77016;SDS011;65949;53.132;17.930;2023-06-26T01:17:32;15.20;;;5.30;;
77016;SDS011;65949;53.132;17.930;2023-06-26T01:20:00;12.20;;;5.10;;
77016;SDS011;65949;53.132;17.930;2023-06-26T01:28:05;11.30;;;4.80;;
77016;SDS011;65949;53.132;17.930;2023-06-26T01:30:34;11.90;;;5.00;;
77016;SDS011;65949;53.132;17.930;2023-06-26T01:33:04;13.30;;;5.60;;
77016;SDS011;65949;53.132;17.930;2023-06-26T01:35:31;13.70;;;5.40;;
77016;SDS011;65949;53.132;17.930;2023-06-26T01:40:58;11.50;;;4.60;;
77016;SDS011;65949;53.132;17.930;2023-06-26T01:46:10;11.40;;;4.50;;
77016;SDS011;65949;53.132;17.930;2023-06-26T01:51:27;12.00;;;4.90;;
77016;SDS011;65949;53.132;17.930;2023-06-26T01:54:01;11.30;;;5.40;;
77016;SDS011;65949;53.132;17.930;2023-06-26T01:56:30;14.40;;;5.50;;
77016;SDS011;65949;53.132;17.930;2023-06-26T01:58:57;10.60;;;4.50;;
77016;SDS011;65949;53.132;17.930;2023-06-26T02:01:26;12.80;;;4.70;;
77016;SDS011;65949;53.132;17.930;2023-06-26T02:03:53;12.20;;;5.20;;
77016;SDS011;65949;53.132;17.930;2023-06-26T02:06:19;14.90;;;5.00;;
77016;SDS011;65949;53.132;17.930;2023-06-26T02:08:46;11.20;;;4.40;;
77016;SDS011;65949;53.132;17.930;2023-06-26T02:11:12;12.30;;;4.50;;
77016;SDS011;65949;53.132;17.930;2023-06-26T02:13:40;8.60;;;4.40;;
77016;SDS011;65949;53.132;17.930;2023-06-26T02:16:07;8.70;;;4.40;;
77016;SDS011;65949;53.132;17.930;2023-06-26T02:18:34;13.10;;;4.70;;
77016;SDS011;65949;53.132;17.930;2023-06-26T02:21:02;10.50;;;4.80;;
77016;SDS011;65949;53.132;17.930;2023-06-26T02:23:29;12.40;;;5.20;;
77016;SDS011;65949;53.132;17.930;2023-06-26T02:25:57;17.00;;;5.40;;
77016;SDS011;65949;53.132;17.930;2023-06-26T02:28:24;15.90;;;5.80;;
77016;SDS011;65949;53.132;17.930;2023-06-26T02:30:50;11.90;;;5.20;;
77016;SDS011;65949;53.132;17.930;2023-06-26T02:33:17;15.90;;;5.80;;
77016;SDS011;65949;53.132;17.930;2023-06-26T02:35:47;14.10;;;6.00;;
77016;SDS011;65949;53.132;17.930;2023-06-26T02:38:14;13.70;;;5.10;;
77016;SDS011;65949;53.132;17.930;2023-06-26T02:40:40;17.80;;;5.90;;
77016;SDS011;65949;53.132;17.930;2023-06-26T02:43:07;15.20;;;5.60;;
77016;SDS011;65949;53.132;17.930;2023-06-26T02:45:34;15.40;;;5.50;;
77016;SDS011;65949;53.132;17.930;2023-06-26T02:48:01;13.10;;;5.30;;
77016;SDS011;65949;53.132;17.930;2023-06-26T02:50:28;10.40;;;4.70;;
77016;SDS011;65949;53.132;17.930;2023-06-26T02:53:03;11.50;;;5.50;;
77016;SDS011;65949;53.132;17.930;2023-06-26T02:55:30;12.70;;;5.50;;
77016;SDS011;65949;53.132;17.930;2023-06-26T02:57:57;10.70;;;4.90;;
77016;SDS011;65949;53.132;17.930;2023-06-26T03:00:24;12.10;;;5.60;;
77016;SDS011;65949;53.132;17.930;2023-06-26T03:02:52;10.70;;;5.90;;
77016;SDS011;65949;53.132;17.930;2023-06-26T03:05:19;10.20;;;5.00;;
77016;SDS011;65949;53.132;17.930;2023-06-26T03:07:46;11.90;;;4.60;;
77016;SDS011;65949;53.132;17.930;2023-06-26T03:10:13;9.60;;;4.80;;
77016;SDS011;65949;53.132;17.930;2023-06-26T03:12:42;11.30;;;4.80;;
77016;SDS011;65949;53.132;17.930;2023-06-26T03:15:09;12.40;;;5.50;;
77016;SDS011;65949;53.132;17.930;2023-06-26T03:17:38;12.20;;;5.90;;
77016;SDS011;65949;53.132;17.930;2023-06-26T03:20:07;11.90;;;5.90;;
77016;SDS011;65949;53.132;17.930;2023-06-26T03:22:48;11.10;;;5.00;;
77016;SDS011;65949;53.132;17.930;2023-06-26T03:25:16;11.10;;;5.40;;
77016;SDS011;65949;53.132;17.930;2023-06-26T03:27:43;10.80;;;5.60;;
77016;SDS011;65949;53.132;17.930;2023-06-26T03:30:10;9.70;;;5.70;;
77016;SDS011;65949;53.132;17.930;2023-06-26T03:32:38;10.00;;;5.80;;
77016;SDS011;65949;53.132;17.930;2023-06-26T03:35:06;14.70;;;6.80;;
77016;SDS011;65949;53.132;17.930;2023-06-26T03:37:33;8.80;;;6.10;;
77016;SDS011;65949;53.132;17.930;2023-06-26T03:39:59;9.50;;;6.20;;
77016;SDS011;65949;53.132;17.930;2023-06-26T03:42:27;10.20;;;7.10;;
77016;SDS011;65949;53.132;17.930;2023-06-26T03:44:54;10.20;;;6.60;;
77016;SDS011;65949;53.132;17.930;2023-06-26T03:47:21;10.80;;;6.40;;
77016;SDS011;65949;53.132;17.930;2023-06-26T03:49:47;10.20;;;7.80;;
77016;SDS011;65949;53.132;17.930;2023-06-26T03:52:14;9.80;;;7.20;;
77016;SDS011;65949;53.132;17.930;2023-06-26T03:54:40;13.00;;;7.60;;
77016;SDS011;65949;53.132;17.930;2023-06-26T03:57:09;10.10;;;7.10;;
77016;SDS011;65949;53.132;17.930;2023-06-26T03:59:36;9.30;;;6.80;;
77016;SDS011;65949;53.132;17.930;2023-06-26T04:02:03;10.20;;;7.30;;
77016;SDS011;65949;53.132;17.930;2023-06-26T04:04:29;9.60;;;6.80;;
77016;SDS011;65949;53.132;17.930;2023-06-26T04:06:56;9.00;;;7.90;;
77016;SDS011;65949;53.132;17.930;2023-06-26T04:09:25;10.30;;;8.10;;
77016;SDS011;65949;53.132;17.930;2023-06-26T04:11:52;8.80;;;7.40;;
77016;SDS011;65949;53.132;17.930;2023-06-26T04:14:19;9.10;;;7.40;;
77016;SDS011;65949;53.132;17.930;2023-06-26T04:16:46;9.20;;;7.70;;
77016;SDS011;65949;53.132;17.930;2023-06-26T04:19:12;9.70;;;7.90;;
77016;SDS011;65949;53.132;17.930;2023-06-26T04:21:39;9.90;;;7.90;;
77016;SDS011;65949;53.132;17.930;2023-06-26T04:24:06;10.80;;;7.70;;
77016;SDS011;65949;53.132;17.930;2023-06-26T04:26:33;9.30;;;8.20;;
77016;SDS011;65949;53.132;17.930;2023-06-26T04:29:00;10.30;;;8.10;;
77016;SDS011;65949;53.132;17.930;2023-06-26T04:31:26;10.00;;;8.70;;
77016;SDS011;65949;53.132;17.930;2023-06-26T04:33:56;12.90;;;8.60;;
77016;SDS011;65949;53.132;17.930;2023-06-26T04:36:24;9.30;;;7.90;;
77016;SDS011;65949;53.132;17.930;2023-06-26T04:38:54;8.80;;;7.50;;
77016;SDS011;65949;53.132;17.930;2023-06-26T04:41:22;9.70;;;8.50;;
77016;SDS011;65949;53.132;17.930;2023-06-26T04:43:49;11.10;;;9.00;;
77016;SDS011;65949;53.132;17.930;2023-06-26T04:46:15;11.50;;;9.70;;
77016;SDS011;65949;53.132;17.930;2023-06-26T04:48:42;10.80;;;8.40;;
77016;SDS011;65949;53.132;17.930;2023-06-26T04:51:11;10.60;;;8.10;;
77016;SDS011;65949;53.132;17.930;2023-06-26T04:53:38;10.10;;;9.00;;
77016;SDS011;65949;53.132;17.930;2023-06-26T04:56:04;10.50;;;8.80;;
77016;SDS011;65949;53.132;17.930;2023-06-26T04:58:31;9.70;;;8.70;;
77016;SDS011;65949;53.132;17.930;2023-06-26T05:00:58;11.00;;;8.10;;
77016;SDS011;65949;53.132;17.930;2023-06-26T05:03:25;9.60;;;8.60;;
77016;SDS011;65949;53.132;17.930;2023-06-26T05:05:51;9.10;;;7.70;;
77016;SDS011;65949;53.132;17.930;2023-06-26T05:08:22;10.30;;;8.70;;
77016;SDS011;65949;53.132;17.930;2023-06-26T05:10:50;10.90;;;8.20;;
77016;SDS011;65949;53.132;17.930;2023-06-26T05:13:17;10.00;;;8.50;;
77016;SDS011;65949;53.132;17.930;2023-06-26T05:15:45;10.30;;;8.30;;
77016;SDS011;65949;53.132;17.930;2023-06-26T05:18:13;9.80;;;8.10;;
77016;SDS011;65949;53.132;17.930;2023-06-26T05:20:40;10.20;;;8.20;;
77016;SDS011;65949;53.132;17.930;2023-06-26T05:23:07;10.40;;;8.40;;
77016;SDS011;65949;53.132;17.930;2023-06-26T05:25:34;16.80;;;7.50;;
77016;SDS011;65949;53.132;17.930;2023-06-26T05:28:01;10.40;;;7.90;;
77016;SDS011;65949;53.132;17.930;2023-06-26T05:30:29;9.00;;;7.80;;
77016;SDS011;65949;53.132;17.930;2023-06-26T05:32:59;10.80;;;8.20;;
77016;SDS011;65949;53.132;17.930;2023-06-26T05:35:28;10.50;;;7.30;;
77016;SDS011;65949;53.132;17.930;2023-06-26T05:37:58;10.40;;;7.70;;
77016;SDS011;65949;53.132;17.930;2023-06-26T05:40:25;14.90;;;8.00;;
77016;SDS011;65949;53.132;17.930;2023-06-26T05:42:52;11.00;;;7.10;;
77016;SDS011;65949;53.132;17.930;2023-06-26T05:45:19;10.40;;;7.80;;
77016;SDS011;65949;53.132;17.930;2023-06-26T05:47:46;11.30;;;7.50;;
77016;SDS011;65949;53.132;17.930;2023-06-26T05:50:14;10.30;;;7.00;;
77016;SDS011;65949;53.132;17.930;2023-06-26T05:52:41;9.40;;;6.70;;
77016;SDS011;65949;53.132;17.930;2023-06-26T05:55:08;12.20;;;7.50;;
77016;SDS011;65949;53.132;17.930;2023-06-26T05:57:36;13.70;;;6.90;;
77016;SDS011;65949;53.132;17.930;2023-06-26T06:00:04;12.60;;;6.30;;
77016;SDS011;65949;53.132;17.930;2023-06-26T06:02:40;11.20;;;6.40;;
77016;SDS011;65949;53.132;17.930;2023-06-26T06:05:08;10.30;;;6.50;;
77016;SDS011;65949;53.132;17.930;2023-06-26T06:07:35;41.10;;;9.00;;
77016;SDS011;65949;53.132;17.930;2023-06-26T06:10:03;11.70;;;6.70;;
77016;SDS011;65949;53.132;17.930;2023-06-26T06:12:30;11.70;;;7.00;;
77016;SDS011;65949;53.132;17.930;2023-06-26T06:14:57;10.80;;;6.30;;
77016;SDS011;65949;53.132;17.930;2023-06-26T06:17:24;11.90;;;6.60;;
77016;SDS011;65949;53.132;17.930;2023-06-26T06:19:50;10.10;;;6.80;;
77016;SDS011;65949;53.132;17.930;2023-06-26T06:22:17;10.10;;;6.30;;
77016;SDS011;65949;53.132;17.930;2023-06-26T06:24:44;11.10;;;6.10;;
77016;SDS011;65949;53.132;17.930;2023-06-26T06:27:10;10.20;;;7.30;;
77016;SDS011;65949;53.132;17.930;2023-06-26T06:29:37;12.80;;;7.40;;
77016;SDS011;65949;53.132;17.930;2023-06-26T06:32:04;9.40;;;6.40;;
77016;SDS011;65949;53.132;17.930;2023-06-26T06:34:31;24.40;;;8.60;;
77016;SDS011;65949;53.132;17.930;2023-06-26T06:36:57;10.40;;;6.30;;
77016;SDS011;65949;53.132;17.930;2023-06-26T06:39:24;19.20;;;6.50;;
77016;SDS011;65949;53.132;17.930;2023-06-26T06:41:51;13.30;;;6.00;;
77016;SDS011;65949;53.132;17.930;2023-06-26T06:44:17;11.30;;;6.10;;
77016;SDS011;65949;53.132;17.930;2023-06-26T06:46:44;10.00;;;5.80;;
77016;SDS011;65949;53.132;17.930;2023-06-26T06:49:11;104.60;;;11.20;;
77016;SDS011;65949;53.132;17.930;2023-06-26T06:51:37;14.80;;;6.10;;
77016;SDS011;65949;53.132;17.930;2023-06-26T06:54:04;11.70;;;5.50;;
77016;SDS011;65949;53.132;17.930;2023-06-26T06:56:31;10.40;;;6.50;;
77016;SDS011;65949;53.132;17.930;2023-06-26T06:58:58;10.30;;;6.30;;
77016;SDS011;65949;53.132;17.930;2023-06-26T07:01:25;10.80;;;6.10;;
77016;SDS011;65949;53.132;17.930;2023-06-26T07:03:51;9.70;;;5.80;;
77016;SDS011;65949;53.132;17.930;2023-06-26T07:06:19;8.80;;;5.60;;
77016;SDS011;65949;53.132;17.930;2023-06-26T07:08:45;8.90;;;5.70;;
77016;SDS011;65949;53.132;17.930;2023-06-26T07:11:12;11.60;;;6.10;;
77016;SDS011;65949;53.132;17.930;2023-06-26T07:13:39;10.30;;;5.30;;
77016;SDS011;65949;53.132;17.930;2023-06-26T07:16:05;11.20;;;6.10;;
77016;SDS011;65949;53.132;17.930;2023-06-26T07:18:32;9.50;;;5.30;;
77016;SDS011;65949;53.132;17.930;2023-06-26T07:20:59;35.10;;;7.30;;
77016;SDS011;65949;53.132;17.930;2023-06-26T07:23:25;29.80;;;7.60;;
77016;SDS011;65949;53.132;17.930;2023-06-26T07:25:53;10.30;;;5.80;;
77016;SDS011;65949;53.132;17.930;2023-06-26T07:28:20;11.10;;;6.20;;
77016;SDS011;65949;53.132;17.930;2023-06-26T07:30:46;11.50;;;6.30;;
77016;SDS011;65949;53.132;17.930;2023-06-26T07:33:13;10.70;;;6.60;;
77016;SDS011;65949;53.132;17.930;2023-06-26T07:35:40;10.50;;;5.80;;
77016;SDS011;65949;53.132;17.930;2023-06-26T07:38:06;9.10;;;5.90;;
77016;SDS011;65949;53.132;17.930;2023-06-26T07:40:33;10.50;;;6.00;;
77016;SDS011;65949;53.132;17.930;2023-06-26T07:42:59;12.40;;;5.80;;
77016;SDS011;65949;53.132;17.930;2023-06-26T07:45:26;10.40;;;6.30;;
77016;SDS011;65949;53.132;17.930;2023-06-26T07:47:53;9.80;;;6.00;;
77016;SDS011;65949;53.132;17.930;2023-06-26T07:50:20;88.30;;;11.90;;
77016;SDS011;65949;53.132;17.930;2023-06-26T07:52:49;11.20;;;5.70;;
77016;SDS011;65949;53.132;17.930;2023-06-26T07:55:16;17.90;;;6.20;;
77016;SDS011;65949;53.132;17.930;2023-06-26T07:57:43;10.10;;;6.00;;
77016;SDS011;65949;53.132;17.930;2023-06-26T08:00:09;9.50;;;6.20;;
77016;SDS011;65949;53.132;17.930;2023-06-26T08:02:40;10.20;;;5.80;;
77016;SDS011;65949;53.132;17.930;2023-06-26T08:05:07;9.40;;;5.90;;
77016;SDS011;65949;53.132;17.930;2023-06-26T08:07:34;9.70;;;5.70;;
77016;SDS011;65949;53.132;17.930;2023-06-26T08:10:00;9.10;;;5.10;;
77016;SDS011;65949;53.132;17.930;2023-06-26T08:12:27;9.40;;;5.60;;
77016;SDS011;65949;53.132;17.930;2023-06-26T08:14:54;16.40;;;6.00;;
77016;SDS011;65949;53.132;17.930;2023-06-26T08:17:20;11.40;;;5.40;;
77016;SDS011;65949;53.132;17.930;2023-06-26T08:19:47;10.50;;;6.20;;
77016;SDS011;65949;53.132;17.930;2023-06-26T08:22:14;11.40;;;6.00;;
77016;SDS011;65949;53.132;17.930;2023-06-26T08:24:40;13.90;;;5.70;;
77016;SDS011;65949;53.132;17.930;2023-06-26T08:27:07;9.20;;;5.30;;
77016;SDS011;65949;53.132;17.930;2023-06-26T08:29:34;7.90;;;5.00;;
77016;SDS011;65949;53.132;17.930;2023-06-26T08:32:00;14.20;;;5.80;;
77016;SDS011;65949;53.132;17.930;2023-06-26T08:34:28;9.60;;;6.00;;
77016;SDS011;65949;53.132;17.930;2023-06-26T08:36:55;12.90;;;6.60;;
77016;SDS011;65949;53.132;17.930;2023-06-26T08:39:22;9.70;;;5.70;;
77016;SDS011;65949;53.132;17.930;2023-06-26T08:41:49;15.40;;;5.20;;
77016;SDS011;65949;53.132;17.930;2023-06-26T08:44:15;8.30;;;5.20;;
77016;SDS011;65949;53.132;17.930;2023-06-26T08:46:42;21.80;;;6.40;;
77016;SDS011;65949;53.132;17.930;2023-06-26T08:49:59;8.80;;;5.20;;
77016;SDS011;65949;53.132;17.930;2023-06-26T08:52:23;7.40;;;4.90;;
77016;SDS011;65949;53.132;17.930;2023-06-26T08:54:57;16.30;;;6.90;;
77016;SDS011;65949;53.132;17.930;2023-06-26T08:57:26;9.20;;;5.60;;
77016;SDS011;65949;53.132;17.930;2023-06-26T08:59:54;8.20;;;4.90;;
77016;SDS011;65949;53.132;17.930;2023-06-26T09:02:21;11.00;;;6.30;;
77016;SDS011;65949;53.132;17.930;2023-06-26T09:04:49;8.60;;;5.00;;
77016;SDS011;65949;53.132;17.930;2023-06-26T09:07:17;7.60;;;5.00;;
77016;SDS011;65949;53.132;17.930;2023-06-26T09:09:43;11.20;;;5.30;;
77016;SDS011;65949;53.132;17.930;2023-06-26T09:12:10;11.00;;;6.40;;
77016;SDS011;65949;53.132;17.930;2023-06-26T09:14:37;9.90;;;5.60;;
77016;SDS011;65949;53.132;17.930;2023-06-26T09:17:05;8.60;;;5.40;;
77016;SDS011;65949;53.132;17.930;2023-06-26T09:19:31;8.10;;;5.10;;
77016;SDS011;65949;53.132;17.930;2023-06-26T09:21:58;9.50;;;4.80;;
77016;SDS011;65949;53.132;17.930;2023-06-26T09:24:25;8.00;;;5.10;;
77016;SDS011;65949;53.132;17.930;2023-06-26T09:26:52;9.60;;;5.80;;
77016;SDS011;65949;53.132;17.930;2023-06-26T09:29:19;10.10;;;5.00;;
77016;SDS011;65949;53.132;17.930;2023-06-26T09:31:46;8.30;;;5.00;;
77016;SDS011;65949;53.132;17.930;2023-06-26T09:34:13;22.50;;;5.90;;
77016;SDS011;65949;53.132;17.930;2023-06-26T09:36:39;9.80;;;5.10;;
77016;SDS011;65949;53.132;17.930;2023-06-26T09:39:08;11.40;;;5.00;;
77016;SDS011;65949;53.132;17.930;2023-06-26T09:41:37;8.60;;;4.60;;
77016;SDS011;65949;53.132;17.930;2023-06-26T09:44:05;68.80;;;9.60;;
77016;SDS011;65949;53.132;17.930;2023-06-26T09:46:32;8.20;;;4.70;;
77016;SDS011;65949;53.132;17.930;2023-06-26T09:49:03;8.30;;;4.90;;
77016;SDS011;65949;53.132;17.930;2023-06-26T09:51:32;9.00;;;4.90;;
77016;SDS011;65949;53.132;17.930;2023-06-26T09:54:00;11.20;;;5.00;;
77016;SDS011;65949;53.132;17.930;2023-06-26T09:56:28;8.40;;;4.30;;
77016;SDS011;65949;53.132;17.930;2023-06-26T09:58:56;8.40;;;5.20;;
77016;SDS011;65949;53.132;17.930;2023-06-26T10:01:24;9.90;;;5.60;;
77016;SDS011;65949;53.132;17.930;2023-06-26T10:03:53;9.80;;;5.90;;
77016;SDS011;65949;53.132;17.930;2023-06-26T10:06:33;10.20;;;5.70;;
77016;SDS011;65949;53.132;17.930;2023-06-26T10:09:03;10.70;;;5.50;;
77016;SDS011;65949;53.132;17.930;2023-06-26T10:11:40;9.30;;;5.10;;
77016;SDS011;65949;53.132;17.930;2023-06-26T10:14:12;14.60;;;5.70;;
77016;SDS011;65949;53.132;17.930;2023-06-26T10:16:41;36.60;;;8.00;;
77016;SDS011;65949;53.132;17.930;2023-06-26T10:19:11;8.10;;;5.20;;
77016;SDS011;65949;53.132;17.930;2023-06-26T10:21:41;10.60;;;5.40;;
77016;SDS011;65949;53.132;17.930;2023-06-26T10:24:07;32.30;;;6.90;;
77016;SDS011;65949;53.132;17.930;2023-06-26T10:26:40;12.50;;;6.00;;
77016;SDS011;65949;53.132;17.930;2023-06-26T10:29:10;9.70;;;6.70;;
77016;SDS011;65949;53.132;17.930;2023-06-26T10:31:40;9.40;;;5.20;;
77016;SDS011;65949;53.132;17.930;2023-06-26T10:34:11;11.00;;;6.10;;
77016;SDS011;65949;53.132;17.930;2023-06-26T10:36:38;10.00;;;5.50;;
77016;SDS011;65949;53.132;17.930;2023-06-26T10:39:05;11.40;;;5.70;;
77016;SDS011;65949;53.132;17.930;2023-06-26T10:41:36;21.70;;;6.60;;
77016;SDS011;65949;53.132;17.930;2023-06-26T10:47:06;12.00;;;5.20;;
77016;SDS011;65949;53.132;17.930;2023-06-26T10:49:34;9.90;;;5.20;;
77016;SDS011;65949;53.132;17.930;2023-06-26T10:52:01;9.40;;;5.60;;
77016;SDS011;65949;53.132;17.930;2023-06-26T10:54:30;8.10;;;5.90;;
77016;SDS011;65949;53.132;17.930;2023-06-26T10:56:58;20.80;;;5.90;;
77016;SDS011;65949;53.132;17.930;2023-06-26T10:59:26;10.70;;;5.60;;
77016;SDS011;65949;53.132;17.930;2023-06-26T11:04:35;9.70;;;5.70;;
77016;SDS011;65949;53.132;17.930;2023-06-26T11:07:16;12.40;;;5.50;;
77016;SDS011;65949;53.132;17.930;2023-06-26T11:12:51;9.10;;;5.30;;
77016;SDS011;65949;53.132;17.930;2023-06-26T11:15:20;7.90;;;5.10;;
77016;SDS011;65949;53.132;17.930;2023-06-26T11:17:47;10.40;;;5.20;;
77016;SDS011;65949;53.132;17.930;2023-06-26T11:20:16;8.00;;;4.90;;
77016;SDS011;65949;53.132;17.930;2023-06-26T11:22:44;8.10;;;4.80;;
77016;SDS011;65949;53.132;17.930;2023-06-26T11:25:11;8.50;;;5.00;;
77016;SDS011;65949;53.132;17.930;2023-06-26T11:30:09;8.60;;;5.10;;
77016;SDS011;65949;53.132;17.930;2023-06-26T11:32:37;15.20;;;6.60;;
77016;SDS011;65949;53.132;17.930;2023-06-26T11:35:05;9.70;;;5.80;;
77016;SDS011;65949;53.132;17.930;2023-06-26T11:37:32;8.50;;;5.00;;
77016;SDS011;65949;53.132;17.930;2023-06-26T11:40:15;8.50;;;5.00;;
77016;SDS011;65949;53.132;17.930;2023-06-26T11:42:44;7.10;;;4.40;;
77016;SDS011;65949;53.132;17.930;2023-06-26T11:45:11;7.40;;;5.00;;
77016;SDS011;65949;53.132;17.930;2023-06-26T11:47:38;8.20;;;4.20;;
77016;SDS011;65949;53.132;17.930;2023-06-26T11:50:05;7.90;;;4.70;;
77016;SDS011;65949;53.132;17.930;2023-06-26T11:52:32;9.20;;;4.70;;
77016;SDS011;65949;53.132;17.930;2023-06-26T11:54:59;7.40;;;4.70;;
77016;SDS011;65949;53.132;17.930;2023-06-26T11:57:26;11.60;;;5.00;;
77016;SDS011;65949;53.132;17.930;2023-06-26T11:59:52;8.60;;;5.30;;
77016;SDS011;65949;53.132;17.930;2023-06-26T12:02:20;9.20;;;4.90;;
77016;SDS011;65949;53.132;17.930;2023-06-26T12:04:47;7.90;;;4.90;;
77016;SDS011;65949;53.132;17.930;2023-06-26T12:07:14;9.70;;;5.20;;
77016;SDS011;65949;53.132;17.930;2023-06-26T12:09:43;7.90;;;5.30;;
77016;SDS011;65949;53.132;17.930;2023-06-26T12:12:14;8.30;;;4.50;;
77016;SDS011;65949;53.132;17.930;2023-06-26T12:14:42;10.30;;;5.40;;
77016;SDS011;65949;53.132;17.930;2023-06-26T12:17:10;7.70;;;4.50;;
77016;SDS011;65949;53.132;17.930;2023-06-26T12:19:38;9.60;;;5.30;;
77016;SDS011;65949;53.132;17.930;2023-06-26T12:22:06;6.80;;;4.50;;
77016;SDS011;65949;53.132;17.930;2023-06-26T12:24:35;8.10;;;5.40;;
77016;SDS011;65949;53.132;17.930;2023-06-26T12:27:11;7.80;;;4.50;;
77016;SDS011;65949;53.132;17.930;2023-06-26T12:29:40;12.30;;;5.00;;
77016;SDS011;65949;53.132;17.930;2023-06-26T12:32:16;7.80;;;5.10;;
77016;SDS011;65949;53.132;17.930;2023-06-26T12:34:46;7.30;;;4.70;;
77016;SDS011;65949;53.132;17.930;2023-06-26T12:37:14;7.10;;;4.50;;
77016;SDS011;65949;53.132;17.930;2023-06-26T12:39:45;7.90;;;5.10;;
77016;SDS011;65949;53.132;17.930;2023-06-26T12:42:27;7.90;;;4.60;;
77016;SDS011;65949;53.132;17.930;2023-06-26T12:44:55;7.00;;;4.50;;
77016;SDS011;65949;53.132;17.930;2023-06-26T12:47:28;10.40;;;5.40;;
77016;SDS011;65949;53.132;17.930;2023-06-26T12:49:57;9.00;;;4.60;;
77016;SDS011;65949;53.132;17.930;2023-06-26T12:52:23;9.60;;;4.90;;
77016;SDS011;65949;53.132;17.930;2023-06-26T12:54:54;8.50;;;5.00;;
77016;SDS011;65949;53.132;17.930;2023-06-26T12:57:22;7.60;;;4.90;;
77016;SDS011;65949;53.132;17.930;2023-06-26T12:59:49;7.90;;;5.20;;
77016;SDS011;65949;53.132;17.930;2023-06-26T13:02:16;7.70;;;4.50;;
77016;SDS011;65949;53.132;17.930;2023-06-26T13:04:42;7.40;;;5.00;;
77016;SDS011;65949;53.132;17.930;2023-06-26T13:07:10;11.60;;;5.00;;
77016;SDS011;65949;53.132;17.930;2023-06-26T13:09:38;7.90;;;4.80;;
77016;SDS011;65949;53.132;17.930;2023-06-26T13:12:05;11.10;;;6.00;;
77016;SDS011;65949;53.132;17.930;2023-06-26T13:14:32;7.90;;;5.10;;
77016;SDS011;65949;53.132;17.930;2023-06-26T13:17:02;7.60;;;4.60;;
77016;SDS011;65949;53.132;17.930;2023-06-26T13:19:29;7.60;;;4.50;;
77016;SDS011;65949;53.132;17.930;2023-06-26T13:21:56;8.20;;;4.80;;
77016;SDS011;65949;53.132;17.930;2023-06-26T13:24:23;7.80;;;4.90;;
77016;SDS011;65949;53.132;17.930;2023-06-26T13:26:49;10.10;;;4.60;;
77016;SDS011;65949;53.132;17.930;2023-06-26T13:29:16;10.20;;;5.10;;
77016;SDS011;65949;53.132;17.930;2023-06-26T13:31:43;8.50;;;5.20;;
77016;SDS011;65949;53.132;17.930;2023-06-26T13:34:13;10.70;;;4.70;;
77016;SDS011;65949;53.132;17.930;2023-06-26T13:36:47;8.40;;;5.20;;
77016;SDS011;65949;53.132;17.930;2023-06-26T13:39:13;7.00;;;5.10;;
77016;SDS011;65949;53.132;17.930;2023-06-26T13:41:40;7.80;;;4.40;;
77016;SDS011;65949;53.132;17.930;2023-06-26T13:44:06;8.80;;;5.40;;
77016;SDS011;65949;53.132;17.930;2023-06-26T13:46:33;8.00;;;4.60;;
77016;SDS011;65949;53.132;17.930;2023-06-26T13:49:00;7.40;;;4.60;;
77016;SDS011;65949;53.132;17.930;2023-06-26T13:51:26;8.10;;;4.40;;
77016;SDS011;65949;53.132;17.930;2023-06-26T13:53:53;10.30;;;4.70;;
77016;SDS011;65949;53.132;17.930;2023-06-26T13:56:21;11.10;;;4.40;;
77016;SDS011;65949;53.132;17.930;2023-06-26T13:58:49;6.30;;;4.20;;
77016;SDS011;65949;53.132;17.930;2023-06-26T14:01:15;6.60;;;4.40;;
77016;SDS011;65949;53.132;17.930;2023-06-26T14:03:42;14.60;;;5.20;;
77016;SDS011;65949;53.132;17.930;2023-06-26T14:06:09;7.70;;;4.10;;
77016;SDS011;65949;53.132;17.930;2023-06-26T14:08:35;6.60;;;4.00;;
77016;SDS011;65949;53.132;17.930;2023-06-26T14:11:02;7.20;;;3.70;;
77016;SDS011;65949;53.132;17.930;2023-06-26T14:13:29;6.00;;;3.50;;
77016;SDS011;65949;53.132;17.930;2023-06-26T14:15:55;13.60;;;4.00;;
77016;SDS011;65949;53.132;17.930;2023-06-26T14:18:23;7.20;;;3.60;;
77016;SDS011;65949;53.132;17.930;2023-06-26T14:20:50;5.60;;;3.40;;
77016;SDS011;65949;53.132;17.930;2023-06-26T14:23:16;7.60;;;3.60;;
77016;SDS011;65949;53.132;17.930;2023-06-26T14:25:43;6.10;;;3.80;;
77016;SDS011;65949;53.132;17.930;2023-06-26T14:28:09;7.00;;;3.40;;
77016;SDS011;65949;53.132;17.930;2023-06-26T14:30:36;5.70;;;3.20;;
77016;SDS011;65949;53.132;17.930;2023-06-26T14:33:03;10.20;;;4.10;;
77016;SDS011;65949;53.132;17.930;2023-06-26T14:35:29;11.20;;;3.40;;
77016;SDS011;65949;53.132;17.930;2023-06-26T14:37:56;6.50;;;4.10;;
77016;SDS011;65949;53.132;17.930;2023-06-26T14:40:22;7.10;;;3.40;;
77016;SDS011;65949;53.132;17.930;2023-06-26T14:42:49;7.60;;;3.40;;
77016;SDS011;65949;53.132;17.930;2023-06-26T14:45:16;6.20;;;3.20;;
77016;SDS011;65949;53.132;17.930;2023-06-26T14:47:43;8.60;;;3.70;;
77016;SDS011;65949;53.132;17.930;2023-06-26T14:50:09;6.70;;;3.80;;
77016;SDS011;65949;53.132;17.930;2023-06-26T14:52:36;6.20;;;3.70;;
77016;SDS011;65949;53.132;17.930;2023-06-26T14:55:03;6.20;;;3.40;;